createdAt,value
2018-10-17T00:00:09.266Z,16.7
2018-10-17T00:05:09.316Z,16.5
2018-10-17T00:10:08.869Z,16.5
2018-10-17T00:15:19.729Z,16.3
2018-10-17T00:20:09.987Z,16.2
2018-10-17T00:25:10.190Z,16.3
2018-10-17T00:30:14.835Z,16.3
2018-10-17T00:35:09.286Z,16.1
2018-10-17T00:40:10.528Z,16.1
2018-10-17T00:45:15.701Z,16.1
2018-10-17T00:50:09.957Z,16
2018-10-17T00:55:08.642Z,16.1
2018-10-17T01:00:18.299Z,15.9
2018-10-17T01:05:08.556Z,15.9
2018-10-17T01:10:11.831Z,15.8
2018-10-17T01:15:12.312Z,15.8
2018-10-17T01:20:08.924Z,15.8
2018-10-17T01:25:09.319Z,15.9
2018-10-17T01:30:17.470Z,15.8
2018-10-17T01:35:08.414Z,15.7
2018-10-17T01:40:09.321Z,15.7
2018-10-17T01:45:13.448Z,15.4
2018-10-17T01:50:09.220Z,15.3
2018-10-17T01:55:14.236Z,15.2
2018-10-17T02:00:10.679Z,15.2
2018-10-17T02:05:09.163Z,15.2
2018-10-17T02:10:09.839Z,15.2
2018-10-17T02:15:14.931Z,15.1
2018-10-17T02:20:09.085Z,15.2
2018-10-17T02:25:09.697Z,15.1
2018-10-17T02:30:12.113Z,15.1
2018-10-17T02:35:08.316Z,15.1
2018-10-17T02:40:09.083Z,15.1
2018-10-17T02:45:09.158Z,15.3
2018-10-17T02:50:09.320Z,15.2
2018-10-17T02:55:09.879Z,15.1
2018-10-17T03:00:13.532Z,15.3
2018-10-17T03:05:08.644Z,15
2018-10-17T03:10:08.535Z,14.9
2018-10-17T03:15:10.173Z,15
2018-10-17T03:20:08.508Z,15
2018-10-17T03:25:09.170Z,15.1
2018-10-17T03:30:12.588Z,15.1
2018-10-17T03:35:08.276Z,15
2018-10-17T03:40:09.004Z,14.9
2018-10-17T03:45:09.223Z,14.9
2018-10-17T03:50:08.161Z,14.9
2018-10-17T03:55:08.602Z,14.7
2018-10-17T04:00:10.034Z,14.7
2018-10-17T04:05:08.396Z,14.8
2018-10-17T04:10:08.639Z,14.7
2018-10-17T04:15:08.806Z,14.6
2018-10-17T04:20:08.992Z,14.5
2018-10-17T04:25:08.492Z,14.2
2018-10-17T04:30:09.525Z,14.3
2018-10-17T04:35:09.241Z,14.2
2018-10-17T04:40:08.259Z,14.5
2018-10-17T04:45:09.927Z,14.1
2018-10-17T04:50:08.576Z,14.3
2018-10-17T04:55:08.447Z,14.3
2018-10-17T05:00:09.769Z,14.2
2018-10-17T05:05:09.791Z,14.1
2018-10-17T05:10:08.469Z,14.1
2018-10-17T05:15:09.837Z,14
2018-10-17T05:20:08.579Z,13.9
2018-10-17T05:25:09.040Z,14.1
2018-10-17T05:30:08.383Z,13.9
2018-10-17T05:35:08.473Z,13.8
2018-10-17T05:40:08.964Z,14
2018-10-17T05:45:08.199Z,13.9
2018-10-17T05:50:08.006Z,14
2018-10-17T05:55:08.377Z,14
2018-10-17T06:00:17.135Z,13.9
2018-10-17T06:05:08.050Z,13.9
2018-10-17T06:10:08.173Z,13.9
2018-10-17T06:15:10.685Z,13.8
2018-10-17T06:20:09.563Z,13.8
2018-10-17T06:25:08.434Z,14
2018-10-17T06:30:09.027Z,13.9
2018-10-17T06:35:08.208Z,13.9
2018-10-17T06:40:08.302Z,13.8
2018-10-17T06:45:08.204Z,13.7
2018-10-17T06:50:07.981Z,13.5
2018-10-17T06:55:07.979Z,13.4
2018-10-17T07:00:08.434Z,13.6
2018-10-17T07:05:08.435Z,13.6
2018-10-17T07:10:07.897Z,13.9
2018-10-17T07:15:08.017Z,13.6
2018-10-17T07:20:08.263Z,13.6
2018-10-17T07:25:08.205Z,13.7
2018-10-17T07:30:09.212Z,13.9
2018-10-17T07:35:07.789Z,13.9
2018-10-17T07:40:07.717Z,14.1
2018-10-17T07:45:07.869Z,14.6
2018-10-17T07:50:07.891Z,14.6
2018-10-17T07:55:07.732Z,14.7
2018-10-17T08:00:08.131Z,14.7
2018-10-17T08:05:07.920Z,14.8
2018-10-17T08:10:07.885Z,14.5
2018-10-17T08:15:07.695Z,14.9
2018-10-17T08:20:08.028Z,15.1
2018-10-17T08:25:07.983Z,15.4
2018-10-17T08:30:08.464Z,15.4
2018-10-17T08:35:07.646Z,15.2
2018-10-17T08:40:07.895Z,15.6
2018-10-17T08:45:07.853Z,15.9
2018-10-17T08:50:08.058Z,16
2018-10-17T08:55:07.606Z,16.2
2018-10-17T09:00:08.072Z,16.5
2018-10-17T09:05:07.571Z,16.6
2018-10-17T09:10:07.664Z,16.8
2018-10-17T09:15:08.102Z,17.3
2018-10-17T09:20:08.191Z,17.6
2018-10-17T09:25:07.496Z,17.5
2018-10-17T09:30:07.871Z,17.5
2018-10-17T09:35:07.584Z,18.2
2018-10-17T09:40:07.670Z,18.4
2018-10-17T09:45:07.828Z,18.3
2018-10-17T09:50:07.758Z,18
2018-10-17T09:55:07.545Z,18.1
2018-10-17T10:00:08.064Z,18.5
2018-10-17T10:05:07.634Z,18.3
2018-10-17T10:10:07.738Z,18.8
2018-10-17T10:15:07.608Z,18.5
2018-10-17T10:20:07.381Z,18.6
2018-10-17T10:25:07.436Z,18.9
2018-10-17T10:30:07.691Z,19
2018-10-17T10:35:07.687Z,19.4
2018-10-17T10:40:07.498Z,19.2
2018-10-17T10:45:07.584Z,19.5
2018-10-17T10:50:07.481Z,20.3
2018-10-17T10:55:07.383Z,19.4
2018-10-17T11:00:07.582Z,19.2
2018-10-17T11:05:07.702Z,19.2
2018-10-17T11:10:07.750Z,19.4
2018-10-17T11:15:07.685Z,19.6
2018-10-17T11:20:09.514Z,19.8
2018-10-17T11:25:07.941Z,19.7
2018-10-17T11:30:10.537Z,20.6
2018-10-17T11:35:08.833Z,21.5
2018-10-17T11:40:07.345Z,20.3
2018-10-17T11:45:08.041Z,20.1
2018-10-17T11:50:07.577Z,20
2018-10-17T11:55:08.751Z,19.7
2018-10-17T12:00:07.625Z,19.8
2018-10-17T12:05:07.893Z,19.8
2018-10-17T12:10:07.719Z,19.5
2018-10-17T12:15:09.601Z,19.6
2018-10-17T12:20:07.427Z,19.7
2018-10-17T12:25:08.258Z,20
2018-10-17T12:30:07.593Z,19.9
2018-10-17T12:35:07.727Z,20.3
2018-10-17T12:40:07.734Z,20.1
2018-10-17T12:45:07.890Z,19.9
2018-10-17T12:50:07.569Z,20.2
2018-10-17T12:55:07.861Z,20.5
2018-10-17T13:00:11.712Z,21
2018-10-17T13:05:07.597Z,21.2
2018-10-17T13:10:07.661Z,20.5
2018-10-17T13:15:07.494Z,20.6
2018-10-17T13:20:07.734Z,21.4
2018-10-17T13:25:10.475Z,20.3
2018-10-17T13:30:10.700Z,20.3
2018-10-17T13:35:07.419Z,20.1
2018-10-17T13:40:07.558Z,20.5
2018-10-17T13:45:09.690Z,20.7
2018-10-17T13:50:09.922Z,20.5
2018-10-17T13:55:07.674Z,19.9
2018-10-17T14:00:08.688Z,20.1
2018-10-17T14:05:07.651Z,20.6
2018-10-17T14:10:07.229Z,19.5
2018-10-17T14:15:08.198Z,19.6
2018-10-17T14:20:08.977Z,19.8
2018-10-17T14:25:07.326Z,20.1
2018-10-17T14:30:07.454Z,19.4
2018-10-17T14:35:07.074Z,19.9
2018-10-17T14:40:07.671Z,19.7
2018-10-17T14:45:07.421Z,19.2
2018-10-17T14:50:07.732Z,18.8
2018-10-17T14:55:07.429Z,19.3
2018-10-17T15:00:08.021Z,19
2018-10-17T15:05:07.504Z,18.9
2018-10-17T15:10:07.477Z,18.7
2018-10-17T15:15:08.398Z,19.5
2018-10-17T15:20:07.354Z,19.5
2018-10-17T15:25:07.355Z,19.4
2018-10-17T15:30:08.203Z,18.9
2018-10-17T15:35:07.084Z,18.6
2018-10-17T15:40:07.222Z,18.4
2018-10-17T15:45:07.532Z,18.4
2018-10-17T15:50:07.183Z,18.2
2018-10-17T15:55:07.058Z,18.4
2018-10-17T16:00:07.570Z,18.4
2018-10-17T16:05:07.141Z,18.1
2018-10-17T16:10:06.925Z,18.5
2018-10-17T16:15:07.417Z,18
2018-10-17T16:20:07.412Z,18
2018-10-17T16:25:07.202Z,18.4
2018-10-17T16:30:07.858Z,18.3
2018-10-17T16:35:07.384Z,18.3
2018-10-17T16:40:07.145Z,18.3
2018-10-17T16:45:07.173Z,18.3
2018-10-17T16:50:07.143Z,17.9
2018-10-17T16:55:06.860Z,17.1
2018-10-17T17:00:07.183Z,17.2
2018-10-17T17:05:07.016Z,17.5
2018-10-17T17:10:07.011Z,17.3
2018-10-17T17:15:07.161Z,17
2018-10-17T17:20:07.113Z,17
2018-10-17T17:25:07.000Z,17
2018-10-17T17:30:07.098Z,16.9
2018-10-17T17:35:07.086Z,16.7
2018-10-17T17:40:07.126Z,16.7
2018-10-17T17:45:07.021Z,16.6
2018-10-17T17:50:07.099Z,16.8
2018-10-17T17:55:06.852Z,16.6
2018-10-17T18:00:07.761Z,16.4
2018-10-17T18:05:07.136Z,16.5
2018-10-17T18:10:06.869Z,16.4
2018-10-17T18:15:06.886Z,16.3
2018-10-17T18:20:06.956Z,16.2
2018-10-17T18:25:06.704Z,16.4
2018-10-17T18:30:06.836Z,16.4
2018-10-17T18:35:07.003Z,16.5
2018-10-17T18:40:07.152Z,16.3
2018-10-17T18:45:07.174Z,16.5
2018-10-17T18:50:06.748Z,16.1
2018-10-17T18:55:07.149Z,16.5
2018-10-17T19:00:06.879Z,16.5
2018-10-17T19:05:06.742Z,16.6
2018-10-17T19:10:06.720Z,16.7
2018-10-17T19:15:07.096Z,16.2
2018-10-17T19:20:07.275Z,16
2018-10-17T19:25:06.968Z,15.5
2018-10-17T19:30:07.254Z,15.5
2018-10-17T19:35:06.995Z,15.4
2018-10-17T19:40:07.156Z,15.3
2018-10-17T19:45:07.295Z,15.3
2018-10-17T19:50:07.012Z,15.6
2018-10-17T19:55:06.974Z,15.6
2018-10-17T20:00:07.862Z,15.8
2018-10-17T20:05:06.949Z,15.4
2018-10-17T20:10:06.854Z,15.8
2018-10-17T20:15:07.527Z,15.8
2018-10-17T20:20:07.600Z,15.4
2018-10-17T20:25:06.787Z,15.2
2018-10-17T20:30:06.980Z,15.2
2018-10-17T20:35:07.399Z,15.1
2018-10-17T20:40:07.605Z,15.2
2018-10-17T20:45:08.494Z,15
2018-10-17T20:50:06.869Z,15
2018-10-17T20:55:06.651Z,14.9
2018-10-17T21:00:07.586Z,15
2018-10-17T21:05:06.875Z,15.1
2018-10-17T21:10:06.871Z,15.4
2018-10-17T21:15:07.624Z,15.7
2018-10-17T21:50:17.170Z,15.7
2018-10-17T21:55:11.513Z,15.5
2018-10-17T22:00:11.864Z,15.2
2018-10-17T22:05:11.958Z,15.5
2018-10-17T22:10:11.593Z,14.9
2018-10-17T22:15:11.685Z,15.1
2018-10-17T22:20:11.732Z,14.6
2018-10-17T22:25:11.753Z,14.8
2018-10-17T22:30:11.672Z,14.6
2018-10-17T22:35:11.834Z,14.9
2018-10-17T22:40:11.601Z,15.6
2018-10-17T22:45:11.835Z,15.3
2018-10-17T22:50:12.116Z,14.6
2018-10-17T22:55:11.894Z,14.3
2018-10-17T23:00:11.553Z,14.4
2018-10-17T23:05:11.760Z,14.4
2018-10-17T23:10:11.589Z,14.3
2018-10-17T23:15:11.838Z,14.4
2018-10-17T23:20:11.554Z,14.6
2018-10-17T23:25:12.180Z,14.6
2018-10-17T23:30:12.756Z,14.3
2018-10-17T23:35:11.823Z,14.2
2018-10-17T23:40:11.676Z,14
2018-10-17T23:45:11.564Z,14.3
2018-10-17T23:50:11.687Z,14.2
2018-10-17T23:55:11.753Z,14
